createdAt,value
2019-05-16T00:00:36.352Z,97540.58
2019-05-16T00:03:43.010Z,97538.30
2019-05-16T00:06:49.866Z,97529.05
2019-05-16T00:09:58.855Z,97537.91
2019-05-16T00:13:04.712Z,97528.34
2019-05-16T00:16:11.285Z,97518.06
2019-05-16T00:19:18.186Z,97512.70
2019-05-16T00:22:28.584Z,97516.44
2019-05-16T00:25:34.724Z,97509.43
2019-05-16T00:28:41.300Z,97509.88
2019-05-16T00:31:48.725Z,97505.46
2019-05-16T00:34:58.214Z,97502.45
2019-05-16T00:38:04.164Z,97499.40
2019-05-16T00:41:11.162Z,97497.81
2019-05-16T00:44:18.927Z,97493.21
2019-05-16T00:47:28.256Z,97493.16
2019-05-16T00:50:34.071Z,97494.66
2019-05-16T00:53:43.916Z,97489.48
2019-05-16T00:56:50.804Z,97482.14
2019-05-16T01:00:00.835Z,97482.56
2019-05-16T01:03:08.100Z,97479.78
2019-05-16T01:06:19.921Z,97477.07
2019-05-16T01:09:23.313Z,97467.27
2019-05-16T01:12:30.163Z,97468.13
2019-05-16T01:15:38.009Z,97467.48
2019-05-16T01:18:48.406Z,97455.38
2019-05-16T01:21:52.890Z,97455.70
2019-05-16T01:24:59.543Z,97453.27
2019-05-16T01:28:08.659Z,97445.11
2019-05-16T01:31:14.703Z,97447.26
2019-05-16T01:34:21.224Z,97433.20
2019-05-16T01:37:27.934Z,97436.75
2019-05-16T01:40:34.479Z,97430.83
2019-05-16T01:43:41.171Z,97431.17
2019-05-16T01:46:50.956Z,97433.25
2019-05-16T01:49:58.056Z,97424.04
2019-05-16T01:53:04.947Z,97425.27
2019-05-16T01:56:11.471Z,97417.19
2019-05-16T01:59:20.241Z,97418.73
2019-05-16T02:02:28.788Z,97411.47
2019-05-16T02:05:35.321Z,97411.13
2019-05-16T02:08:42.023Z,97404.38
2019-05-16T02:11:50.793Z,97407.86
2019-05-16T02:14:58.718Z,97406.09
2019-05-16T02:18:08.009Z,97400.61
2019-05-16T02:21:13.757Z,97401.53
2019-05-16T02:24:20.269Z,97405.34
2019-05-16T02:27:28.751Z,97397.39
2019-05-16T02:30:35.323Z,97398.56
2019-05-16T02:33:41.948Z,97392.39
2019-05-16T02:37:10.770Z,97391.58
2019-05-16T02:40:01.194Z,97393.66
2019-05-16T02:43:12.505Z,97394.40
2019-05-16T02:46:21.559Z,97390.20
2019-05-16T02:49:33.716Z,97385.45
2019-05-16T02:52:35.653Z,97381.53
2019-05-16T02:55:42.427Z,97381.27
2019-05-16T02:58:52.013Z,97374.42
2019-05-16T03:02:00.621Z,97367.94
2019-05-16T03:05:06.084Z,97359.09
2019-05-16T03:08:13.798Z,97351.70
2019-05-16T03:11:21.340Z,97358.34
2019-05-16T03:14:31.541Z,97356.23
2019-05-16T03:17:43.687Z,97356.77
2019-05-16T03:20:54.626Z,97348.33
2019-05-16T03:24:01.953Z,97340.08
2019-05-16T03:27:10.886Z,97337.62
2019-05-16T03:30:17.348Z,97335.09
2019-05-16T03:33:33.122Z,97327.80
2019-05-16T03:36:34.424Z,97323.58
2019-05-16T03:39:40.755Z,97315.51
2019-05-16T03:42:47.621Z,97315.95
2019-05-16T03:45:57.375Z,97316.94
2019-05-16T03:49:04.044Z,97310.32
2019-05-16T03:52:11.301Z,97314.77
2019-05-16T03:55:21.112Z,97310.13
2019-05-16T03:58:26.420Z,97302.41
2019-05-16T04:01:34.917Z,97299.97
2019-05-16T04:04:41.867Z,97296.26
2019-05-16T04:07:53.167Z,97295.33
2019-05-16T04:11:01.451Z,97297.32
2019-05-16T04:14:10.613Z,97297.13
2019-05-16T04:17:15.601Z,97290.62
2019-05-16T04:20:24.459Z,97289.03
2019-05-16T04:23:31.634Z,97286.69
2019-05-16T04:26:40.945Z,97284.97
2019-05-16T04:29:47.070Z,97279.73
2019-05-16T04:32:53.602Z,97279.86
2019-05-16T04:36:01.241Z,97280.31
2019-05-16T04:39:11.800Z,97278.06
2019-05-16T04:42:17.177Z,97276.08
2019-05-16T04:45:23.764Z,97268.92
2019-05-16T04:48:31.060Z,97271.39
2019-05-16T04:51:41.129Z,97267.92
2019-05-16T04:54:46.494Z,97271.42
2019-05-16T04:57:52.977Z,97273.22
2019-05-16T05:01:01.556Z,97266.89
2019-05-16T05:04:11.691Z,97258.72
2019-05-16T05:07:15.739Z,97250.22
2019-05-16T05:10:22.595Z,97250.83
2019-05-16T05:13:30.640Z,97240.42
2019-05-16T05:16:37.341Z,97226.08
2019-05-16T05:19:43.801Z,97225.09
2019-05-16T05:22:50.276Z,97230.29
2019-05-16T05:25:56.765Z,97229.25
2019-05-16T05:29:03.355Z,97233.36
2019-05-16T05:32:14.385Z,97235.66
2019-05-16T05:35:20.605Z,97231.00
2019-05-16T05:38:27.346Z,97230.92
2019-05-16T05:41:33.919Z,97232.30
2019-05-16T05:44:42.456Z,97237.85
2019-05-16T05:47:50.521Z,97232.27
2019-05-16T05:50:57.152Z,97242.19
2019-05-16T05:54:03.758Z,97240.13
2019-05-16T05:57:10.499Z,97242.09
2019-05-16T06:00:17.192Z,97247.66
2019-05-16T06:03:23.639Z,97244.41
2019-05-16T06:06:32.817Z,97242.58
2019-05-16T06:09:50.508Z,97247.27
2019-05-16T06:12:46.777Z,97248.61
2019-05-16T06:15:55.841Z,97248.66
2019-05-16T06:19:02.354Z,97251.90
2019-05-16T06:22:10.228Z,97240.37
2019-05-16T06:25:16.992Z,97239.84
2019-05-16T06:28:23.400Z,97242.33
2019-05-16T06:31:31.436Z,97241.59
2019-05-16T06:34:40.284Z,97244.89
2019-05-16T06:37:46.680Z,97240.34
2019-05-16T06:40:53.182Z,97237.73
2019-05-16T06:44:01.589Z,97225.67
2019-05-16T06:47:16.989Z,97223.95
2019-05-16T06:50:16.634Z,97215.64
2019-05-16T06:53:23.068Z,97207.84
2019-05-16T06:56:32.140Z,97201.80
2019-05-16T06:59:40.447Z,97203.67
2019-05-16T07:02:50.305Z,97203.50
2019-05-16T07:05:56.751Z,97207.50
2019-05-16T07:09:05.018Z,97202.08
2019-05-16T07:12:11.810Z,97201.42
2019-05-16T07:15:20.654Z,97200.98
2019-05-16T07:18:27.099Z,97202.13
2019-05-16T07:21:33.614Z,97202.59
2019-05-16T07:24:40.066Z,97198.47
2019-05-16T07:27:50.730Z,97196.67
2019-05-16T07:30:56.415Z,97195.30
2019-05-16T07:34:03.186Z,97204.23
2019-05-16T07:37:10.813Z,97200.20
2019-05-16T07:40:25.663Z,97197.84
2019-05-16T07:43:25.959Z,97198.34
2019-05-16T07:46:32.567Z,97210.28
2019-05-16T07:49:40.721Z,97204.67
2019-05-16T07:52:50.825Z,97198.34
2019-05-16T07:55:56.150Z,97196.89
2019-05-16T07:59:02.719Z,97190.48
2019-05-16T08:02:10.930Z,97185.16
2019-05-16T08:05:20.769Z,97182.45
2019-05-16T08:08:26.049Z,97176.67
2019-05-16T08:11:32.536Z,97169.08
2019-05-16T08:14:40.904Z,97166.53
2019-05-16T08:17:51.120Z,97174.80
2019-05-16T08:21:00.750Z,97186.58
2019-05-16T08:24:08.121Z,97184.60
2019-05-16T08:27:14.616Z,97178.81
2019-05-16T08:30:21.375Z,97176.70
2019-05-16T08:33:31.193Z,97172.14
2019-05-16T08:36:36.944Z,97177.25
2019-05-16T08:39:43.361Z,97164.64
2019-05-16T08:42:52.091Z,97164.97
2019-05-16T08:46:01.064Z,97156.23
2019-05-16T08:49:06.955Z,97155.31
2019-05-16T08:52:13.467Z,97153.03
2019-05-16T08:55:21.780Z,97149.00
2019-05-16T08:58:33.099Z,97157.20
2019-05-16T09:01:36.996Z,97153.34
2019-05-16T09:04:45.975Z,97154.58
2019-05-16T09:11:09.440Z,97149.00
2019-05-16T09:14:09.432Z,97143.98
2019-05-16T09:17:18.027Z,97145.50
2019-05-16T09:18:32.826Z,97156.99
2019-05-16T09:20:24.128Z,97142.17
2019-05-16T09:23:32.223Z,97139.98
2019-05-16T09:26:38.823Z,97138.46
2019-05-16T09:29:47.279Z,97139.48
2019-05-16T09:32:53.824Z,97141.02
2019-05-16T09:36:00.400Z,97134.16
2019-05-16T09:39:09.093Z,97125.58
2019-05-16T09:42:17.159Z,97131.61
2019-05-16T09:45:27.049Z,97124.55
2019-05-16T09:48:33.207Z,97126.28
2019-05-16T09:51:39.827Z,97121.72
2019-05-16T09:54:46.963Z,97116.94
2019-05-16T09:57:54.995Z,97121.38
2019-05-16T10:01:01.870Z,97113.42
2019-05-16T10:04:08.486Z,97120.47
2019-05-16T10:07:17.824Z,97126.33
2019-05-16T10:10:26.172Z,97131.52
2019-05-16T10:13:33.801Z,97130.53
2019-05-16T10:16:42.194Z,97130.09
2019-05-16T10:19:49.204Z,97125.66
2019-05-16T10:22:57.982Z,97118.84
2019-05-16T10:26:04.308Z,97122.58
2019-05-16T10:29:11.160Z,97120.10
2019-05-16T10:32:17.773Z,97116.62
2019-05-16T10:35:29.187Z,97116.50
2019-05-16T10:38:32.485Z,97105.59
2019-05-16T10:41:38.981Z,97109.64
2019-05-16T10:44:48.357Z,97112.03
2019-05-16T10:47:54.257Z,97104.55
2019-05-16T10:51:01.036Z,97102.39
2019-05-16T10:54:13.629Z,97096.59
2019-05-16T10:57:16.043Z,97098.40
2019-05-16T11:00:49.056Z,97088.22
2019-05-16T11:03:31.042Z,97096.36
2019-05-16T11:06:37.814Z,97094.09
2019-05-16T11:09:55.747Z,97094.88
2019-05-16T11:12:55.622Z,97082.27
2019-05-16T11:16:02.308Z,97086.41
2019-05-16T11:19:17.453Z,97085.64
2019-05-16T11:22:18.309Z,97087.40
2019-05-16T11:25:29.575Z,97078.83
2019-05-16T11:28:33.508Z,97079.02
2019-05-16T11:31:39.923Z,97079.14
2019-05-16T11:34:47.945Z,97074.38
2019-05-16T11:37:57.045Z,97070.12
2019-05-16T11:41:03.449Z,97072.22
2019-05-16T11:44:10.191Z,97067.42
2019-05-16T11:47:16.753Z,97068.44
2019-05-16T11:50:23.540Z,97068.61
2019-05-16T11:53:30.060Z,97059.73
2019-05-16T11:56:37.039Z,97059.77
2019-05-16T11:59:43.979Z,97058.43
2019-05-16T12:02:51.130Z,97062.32
2019-05-16T12:05:58.086Z,97062.48
2019-05-16T12:09:06.791Z,97057.51
2019-05-16T12:12:16.416Z,97056.62
2019-05-16T12:15:23.920Z,97058.33
2019-05-16T12:18:30.433Z,97058.58
2019-05-16T12:21:37.334Z,97061.73
2019-05-16T12:24:43.763Z,97051.69
2019-05-16T12:27:52.305Z,97048.94
2019-05-16T12:30:58.782Z,97046.86
2019-05-16T12:34:09.545Z,97045.95
2019-05-16T12:37:14.815Z,97047.27
2019-05-16T12:40:21.270Z,97049.69
2019-05-16T12:43:44.274Z,97050.84
2019-05-16T12:46:36.570Z,97048.30
2019-05-16T12:49:43.333Z,97050.30
2019-05-16T12:52:51.495Z,97051.14
2019-05-16T12:55:57.946Z,97054.42
2019-05-16T12:59:04.738Z,97052.84
2019-05-16T13:02:11.291Z,97052.66
2019-05-16T13:05:18.092Z,97056.25
2019-05-16T13:08:26.779Z,97052.16
2019-05-16T13:11:33.075Z,97049.63
2019-05-16T13:14:40.502Z,97047.53
2019-05-16T13:17:48.641Z,97050.55
2019-05-16T13:20:57.412Z,97047.96
2019-05-16T13:24:03.613Z,97041.67
2019-05-16T13:27:10.210Z,97040.81
2019-05-16T13:30:17.704Z,97041.58
2019-05-16T13:33:24.196Z,97039.00
2019-05-16T13:36:30.807Z,97040.57
2019-05-16T13:39:37.633Z,97032.58
2019-05-16T13:42:47.998Z,97034.20
2019-05-16T13:45:52.540Z,97031.86
2019-05-16T13:48:59.122Z,97031.05
2019-05-16T13:52:07.243Z,97027.44
2019-05-16T13:55:16.561Z,97028.87
2019-05-16T13:58:22.653Z,97029.95
2019-05-16T14:01:29.435Z,97028.13
2019-05-16T14:04:37.259Z,97025.99
2019-05-16T14:07:47.783Z,97032.83
2019-05-16T14:10:53.669Z,97026.12
2019-05-16T14:14:00.173Z,97025.86
2019-05-16T14:17:14.116Z,97020.77
2019-05-16T14:20:18.201Z,97019.36
2019-05-16T14:23:24.253Z,97021.54
2019-05-16T14:26:30.763Z,97025.66
2019-05-16T14:29:37.893Z,97023.78
2019-05-16T14:32:50.517Z,97023.58
2019-05-16T14:35:53.430Z,97025.45
2019-05-16T14:38:59.917Z,97016.05
2019-05-16T14:42:06.647Z,97012.14
2019-05-16T14:45:19.250Z,97016.68
2019-05-16T14:48:27.798Z,97017.82
2019-05-16T14:51:34.021Z,97021.60
2019-05-16T14:54:40.567Z,97015.61
2019-05-16T14:57:50.005Z,97015.03
2019-05-16T15:00:57.479Z,97013.76
2019-05-16T15:04:07.202Z,97007.65
2019-05-16T15:07:13.087Z,97006.84
2019-05-16T15:10:20.110Z,97004.87
2019-05-16T15:13:28.025Z,97011.00
2019-05-16T15:16:34.722Z,97010.35
2019-05-16T15:19:41.602Z,97003.82
2019-05-16T15:22:48.669Z,96999.08
2019-05-16T15:25:55.092Z,96997.25
2019-05-16T15:29:01.887Z,96996.66
2019-05-16T15:32:08.566Z,96996.96
2019-05-16T15:35:18.001Z,96995.80
2019-05-16T15:38:26.980Z,96996.46
2019-05-16T15:41:33.319Z,97001.76
2019-05-16T15:44:39.962Z,97000.95
2019-05-16T15:47:49.183Z,96991.56
2019-05-16T15:50:59.511Z,97001.10
2019-05-16T15:54:06.712Z,96998.58
2019-05-16T15:57:13.366Z,96992.59
2019-05-16T16:00:43.061Z,96989.99
2019-05-16T16:03:51.167Z,96987.96
2019-05-16T16:06:57.759Z,96988.50
2019-05-16T16:10:07.029Z,96983.95
2019-05-16T16:13:13.766Z,96984.59
2019-05-16T16:16:20.360Z,96977.18
2019-05-16T16:19:28.630Z,96979.27
2019-05-16T16:22:37.760Z,96981.38
2019-05-16T16:25:50.702Z,96983.80
2019-05-16T16:28:55.209Z,96980.89
2019-05-16T16:32:02.005Z,96979.43
2019-05-16T16:35:08.831Z,96981.97
2019-05-16T16:38:16.929Z,96981.83
2019-05-16T16:41:23.787Z,96981.78
2019-05-16T16:44:30.416Z,96985.73
2019-05-16T16:47:38.011Z,96982.48
2019-05-16T16:50:45.295Z,96988.39
2019-05-16T16:53:52.746Z,96993.73
2019-05-16T16:56:59.535Z,96990.61
2019-05-16T17:00:07.536Z,96982.09
2019-05-16T17:03:16.658Z,96987.64
2019-05-16T17:06:31.300Z,96986.97
2019-05-16T17:09:38.139Z,96987.81
2019-05-16T17:12:48.403Z,96989.72
2019-05-16T17:15:56.939Z,96984.70
2019-05-16T17:19:03.361Z,96982.30
2019-05-16T17:22:17.141Z,96984.70
2019-05-16T17:25:21.337Z,96980.80
2019-05-16T17:28:28.020Z,96981.88
2019-05-16T17:31:34.744Z,96984.05
2019-05-16T17:34:41.377Z,96970.15
2019-05-16T17:37:49.933Z,96967.45
2019-05-16T17:40:57.076Z,96970.33
2019-05-16T17:44:03.765Z,96969.39
2019-05-16T17:47:10.341Z,96961.31
2019-05-16T17:50:17.791Z,96962.13
2019-05-16T17:53:26.532Z,96965.50
2019-05-16T17:56:33.582Z,96963.75
2019-05-16T17:59:40.326Z,96953.64
2019-05-16T18:02:49.093Z,96951.14
2019-05-16T18:05:56.727Z,96954.23
2019-05-16T18:09:06.627Z,96958.02
2019-05-16T18:12:14.676Z,96966.06
2019-05-16T18:15:24.659Z,96962.48
2019-05-16T18:18:33.429Z,96964.89
2019-05-16T18:21:39.908Z,96965.72
2019-05-16T18:24:51.672Z,96975.94
2019-05-16T18:28:13.515Z,96974.97
2019-05-16T18:31:20.099Z,96970.93
2019-05-16T18:34:28.036Z,96972.11
2019-05-16T18:37:34.597Z,96973.70
2019-05-16T18:40:41.066Z,96964.34
2019-05-16T18:43:50.906Z,96965.73
2019-05-16T18:47:06.840Z,96966.13
2019-05-16T18:50:06.928Z,96967.55
2019-05-16T18:53:13.646Z,96965.47
2019-05-16T18:56:20.034Z,96971.77
2019-05-16T18:59:28.672Z,96968.16
2019-05-16T19:02:37.937Z,96972.59
2019-05-16T19:05:47.750Z,96971.45
2019-05-16T19:08:56.344Z,96970.48
2019-05-16T19:12:03.489Z,96976.41
2019-05-16T19:15:10.581Z,96974.31
2019-05-16T19:18:18.409Z,96972.57
2019-05-16T19:21:26.205Z,96972.57
2019-05-16T19:24:34.277Z,96971.48
2019-05-16T19:27:41.088Z,96971.30
2019-05-16T19:30:48.825Z,96973.11
2019-05-16T19:33:56.536Z,96970.99
2019-05-16T19:37:03.250Z,96974.75
2019-05-16T19:40:11.200Z,96969.08
2019-05-16T19:43:17.785Z,96971.89
2019-05-16T19:46:26.955Z,96968.54
2019-05-16T19:49:32.666Z,96968.64
2019-05-16T19:52:39.260Z,96964.76
2019-05-16T19:55:48.920Z,96961.98
2019-05-16T19:58:57.131Z,96955.50
2019-05-16T20:02:03.939Z,96953.52
2019-05-16T20:05:11.076Z,96959.59
2019-05-16T20:08:17.763Z,96952.52
2019-05-16T20:11:27.618Z,96950.89
2019-05-16T20:14:36.663Z,96948.99
2019-05-16T20:17:52.166Z,96947.92
2019-05-16T20:20:51.584Z,96949.28
2019-05-16T20:24:00.518Z,96953.57
2019-05-16T20:27:08.122Z,96949.12
2019-05-16T20:30:17.053Z,96946.07
2019-05-16T20:33:23.824Z,96943.75
2019-05-16T20:36:30.423Z,96933.59
2019-05-16T20:39:37.195Z,96936.94
2019-05-16T20:42:47.452Z,96943.94
2019-05-16T20:45:52.398Z,96939.36
2019-05-16T20:48:59.096Z,96935.87
2019-05-16T20:52:07.079Z,96936.81
2019-05-16T20:55:14.336Z,96941.28
2019-05-16T20:58:20.958Z,96943.75
2019-05-16T21:01:29.395Z,96943.67
2019-05-16T21:04:37.507Z,96936.46
2019-05-16T21:07:48.849Z,96939.53
2019-05-16T21:10:57.045Z,96938.09
2019-05-16T21:14:03.483Z,96932.16
2019-05-16T21:17:10.056Z,96930.41
2019-05-16T21:20:19.727Z,96929.19
2019-05-16T21:23:27.475Z,96928.78
2019-05-16T21:26:36.799Z,96928.67
2019-05-16T21:29:47.195Z,96925.11
2019-05-16T21:32:53.536Z,96928.84
2019-05-16T21:36:00.304Z,96923.36
2019-05-16T21:39:08.602Z,96920.48
2019-05-16T21:42:18.535Z,96913.43
2019-05-16T21:45:28.325Z,96912.50
2019-05-16T21:48:36.872Z,96915.97
2019-05-16T21:51:42.819Z,96912.09
2019-05-16T21:54:51.161Z,96915.63
2019-05-16T21:57:57.745Z,96910.28
2019-05-16T22:01:06.608Z,96908.53
2019-05-16T22:04:13.964Z,96904.34
2019-05-16T22:07:32.814Z,96904.20
2019-05-16T22:10:30.708Z,96901.27
2019-05-16T22:13:41.298Z,96903.38
2019-05-16T22:16:49.557Z,96897.56
2019-05-16T22:19:59.161Z,96897.25
2019-05-16T22:23:06.989Z,96895.23
2019-05-16T22:26:13.729Z,96891.17
2019-05-16T22:29:21.353Z,96897.38
2019-05-16T22:32:28.022Z,96897.43
2019-05-16T22:35:34.747Z,96892.61
2019-05-16T22:38:41.430Z,96893.95
2019-05-16T22:41:51.100Z,96890.27
2019-05-16T22:44:57.725Z,96893.19
2019-05-16T22:48:07.069Z,96884.83
2019-05-16T22:51:16.874Z,96893.31
2019-05-16T22:54:23.445Z,96890.98
2019-05-16T22:57:29.967Z,96891.02
2019-05-16T23:00:41.299Z,96893.57
2019-05-16T23:03:49.042Z,96893.39
2019-05-16T23:06:56.451Z,96893.36
2019-05-16T23:10:03.196Z,96887.66
2019-05-16T23:13:09.603Z,96893.86
2019-05-16T23:16:17.168Z,96889.23
2019-05-16T23:19:26.468Z,96885.63
2019-05-16T23:22:36.486Z,96888.27
2019-05-16T23:39:49.522Z,96864.96
2019-05-16T23:42:56.945Z,96861.69
2019-05-16T23:46:03.641Z,96859.33
2019-05-16T23:49:10.718Z,96861.27
2019-05-16T23:52:17.279Z,96863.59
2019-05-16T23:55:23.754Z,96864.83
2019-05-16T23:58:33.325Z,96856.22
